Time;durP1;ratioP1;P1;durP2;ratioP2;P2;SDS_P1;SDS_P2;PMS_P1;PMS_P2;Temp;Humidity;BMP_temperature;BMP_pressure;BME280_temperature;BME280_humidity;BME280_pressure;Samples;Min_cycle;Max_cycle;Signal;HPM_P1;HPM_P2
2022/02/15 04:49:34;;;;;;;2.50;1.17;;;7.70;99.90;;;;;;5999188;23;21023;31
2022/02/15 04:52:02;;;;;;;2.60;1.20;;;7.80;99.90;;;;;;4895757;29;20475;-79
2022/02/15 04:54:29;;;;;;;3.40;1.30;;;7.80;99.90;;;;;;4898517;29;20059;-77
2022/02/15 04:56:56;;;;;;;3.17;0.95;;;7.80;99.90;;;;;;4898016;29;20056;-79
2022/02/15 04:59:23;;;;;;;4.68;1.40;;;7.80;99.90;;;;;;4916887;29;20489;-77
2022/02/15 05:01:50;;;;;;;3.97;1.70;;;7.70;99.90;;;;;;4910938;29;20049;-79
2022/02/15 05:07:00;;;;;;;4.13;1.40;;;7.70;99.90;;;;;;4897879;29;20059;-77
2022/02/15 05:09:29;;;;;;;3.63;1.40;;;7.70;99.90;;;;;;4898270;29;20052;-78
2022/02/15 05:11:56;;;;;;;3.30;1.40;;;7.70;99.90;;;;;;4898128;29;20135;-79
2022/02/15 05:14:24;;;;;;;5.05;1.50;;;7.70;99.90;;;;;;4897632;29;20447;-78
2022/02/15 05:16:51;;;;;;;3.10;1.30;;;7.70;99.90;;;;;;4898037;29;20056;-77
2022/02/15 05:19:18;;;;;;;3.33;1.30;;;7.60;99.90;;;;;;4898157;29;20076;-79
2022/02/15 05:21:45;;;;;;;3.10;1.20;;;7.60;99.90;;;;;;4898049;29;20048;-79
2022/02/15 05:24:14;;;;;;;6.40;1.52;;;7.60;99.90;;;;;;4897821;29;20059;-78
2022/02/15 05:26:41;;;;;;;4.38;1.42;;;7.60;99.90;;;;;;4898107;29;20146;-79
2022/02/15 05:29:08;;;;;;;5.10;1.30;;;7.60;99.90;;;;;;4897498;29;20486;-78
2022/02/15 05:31:35;;;;;;;3.20;1.20;;;7.60;99.90;;;;;;4897077;29;20593;-79
2022/02/15 05:34:02;;;;;;;4.28;1.30;;;7.50;99.90;;;;;;4897787;29;20048;-77
2022/02/15 05:36:30;;;;;;;3.13;1.10;;;7.60;99.90;;;;;;4897857;29;20139;-75
2022/02/15 05:38:57;;;;;;;5.53;1.50;;;7.50;99.90;;;;;;4897906;29;20131;-78
2022/02/15 05:41:26;;;;;;;4.13;1.60;;;7.50;99.90;;;;;;4897685;29;20049;-79
2022/02/15 05:43:54;;;;;;;3.70;1.20;;;7.50;99.90;;;;;;4898096;29;20053;-78
2022/02/15 05:46:21;;;;;;;4.18;1.65;;;7.50;99.90;;;;;;4897893;29;20059;-78
2022/02/15 05:48:48;;;;;;;4.47;1.40;;;7.50;99.90;;;;;;4897738;29;20044;-78
2022/02/15 05:51:15;;;;;;;3.97;1.67;;;7.50;99.90;;;;;;4897440;29;20064;-79
2022/02/15 05:53:42;;;;;;;3.53;1.48;;;7.50;99.90;;;;;;4897554;29;20143;-75
2022/02/15 05:56:09;;;;;;;4.38;1.48;;;7.50;99.90;;;;;;4897524;29;20045;-77
2022/02/15 05:58:38;;;;;;;5.30;1.60;;;7.40;99.90;;;;;;4900733;29;20076;-78
2022/02/15 06:01:06;;;;;;;5.20;1.73;;;7.40;99.90;;;;;;4901343;29;20056;-76
2022/02/15 06:06:17;;;;;;;;;;;7.40;99.90;;;;;;4901910;29;20063;-78
2022/02/15 06:08:44;;;;;;;3.55;1.50;;;7.40;99.90;;;;;;4901329;29;20002;-80
2022/02/15 06:11:12;;;;;;;4.00;1.60;;;7.40;99.90;;;;;;4901315;29;20221;-78
2022/02/15 06:13:40;;;;;;;4.18;1.40;;;7.40;99.90;;;;;;4901197;29;20143;-79
2022/02/15 06:16:07;;;;;;;4.65;1.40;;;7.40;99.90;;;;;;4901286;29;20060;-77
2022/02/15 06:18:34;;;;;;;4.47;1.58;;;7.40;99.90;;;;;;4901254;29;20147;-79
2022/02/15 06:21:01;;;;;;;3.45;1.52;;;7.30;99.90;;;;;;4901091;29;20059;-79
2022/02/15 06:23:29;;;;;;;4.00;1.52;;;7.40;99.90;;;;;;4901323;29;20063;-77
2022/02/15 06:25:56;;;;;;;2.80;1.13;;;7.40;99.90;;;;;;4901032;29;20052;-78
2022/02/15 06:28:23;;;;;;;5.82;1.35;;;7.40;99.90;;;;;;4900835;29;20414;-79
2022/02/15 06:30:51;;;;;;;3.03;1.10;;;7.40;99.90;;;;;;4900888;29;20044;-79
2022/02/15 06:33:18;;;;;;;4.00;1.58;;;7.40;99.90;;;;;;4900863;29;20052;-79
2022/02/15 06:35:45;;;;;;;3.00;1.30;;;7.40;99.90;;;;;;4900746;29;20051;-77
2022/02/15 06:38:12;;;;;;;4.53;1.45;;;7.40;99.90;;;;;;4900425;29;20140;-79
2022/02/15 06:40:39;;;;;;;3.72;1.30;;;7.50;99.90;;;;;;4900508;29;20109;-79
2022/02/15 06:43:07;;;;;;;4.25;1.30;;;7.50;99.90;;;;;;4900510;29;20113;-78
2022/02/15 06:45:34;;;;;;;2.83;1.10;;;7.50;99.90;;;;;;4900501;29;20553;-80
2022/02/15 06:48:02;;;;;;;4.18;1.50;;;7.50;99.90;;;;;;4900496;29;20059;-79
2022/02/15 06:50:29;;;;;;;3.35;1.20;;;7.60;99.90;;;;;;4900303;29;20508;-78
2022/02/15 06:52:56;;;;;;;2.83;1.13;;;7.60;99.90;;;;;;4900356;29;20052;-78
2022/02/15 06:55:23;;;;;;;4.82;1.30;;;7.60;99.90;;;;;;4900195;29;20053;-77
2022/02/15 06:57:50;;;;;;;4.07;1.42;;;7.60;99.90;;;;;;4900456;29;20087;-78
2022/02/15 07:00:18;;;;;;;3.55;1.30;;;7.60;99.90;;;;;;4900259;29;20049;-78
2022/02/15 07:02:45;;;;;;;4.88;1.35;;;7.60;99.90;;;;;;4900143;29;20067;-78
2022/02/15 07:05:13;;;;;;;4.03;1.60;;;7.70;99.90;;;;;;4900509;29;20135;-78
2022/02/15 07:07:41;;;;;;;3.72;1.17;;;7.60;99.90;;;;;;4900020;29;20076;-79
2022/02/15 07:10:10;;;;;;;4.25;1.30;;;7.60;99.90;;;;;;4899985;29;20520;-78
2022/02/15 07:12:37;;;;;;;5.35;2.10;;;7.60;99.90;;;;;;4899886;29;20486;-77
2022/02/15 07:15:06;;;;;;;6.63;2.15;;;7.60;99.90;;;;;;4899929;29;20582;-77
2022/02/15 07:17:37;;;;;;;5.30;1.83;;;7.60;99.90;;;;;;4900291;29;20048;-78
2022/02/15 07:20:06;;;;;;;4.80;2.08;;;7.60;99.90;;;;;;4900290;29;20068;-76
2022/02/15 07:22:34;;;;;;;5.50;2.13;;;7.50;99.90;;;;;;4900230;29;20504;-78
2022/02/15 07:25:03;;;;;;;5.80;2.10;;;7.50;99.90;;;;;;4900594;29;20482;-77
2022/02/15 07:27:30;;;;;;;7.22;2.53;;;7.50;99.90;;;;;;4905556;29;20056;-78
2022/02/15 07:29:57;;;;;;;5.97;2.60;;;7.40;99.90;;;;;;4908807;29;20072;-76
2022/02/15 07:32:24;;;;;;;5.72;2.42;;;7.40;99.90;;;;;;4902225;29;20058;-78
2022/02/15 07:34:52;;;;;;;4.78;2.42;;;7.40;99.90;;;;;;4899973;29;20143;-79
2022/02/15 07:37:20;;;;;;;4.85;2.13;;;7.20;99.90;;;;;;4899667;29;20508;-78
2022/02/15 07:39:48;;;;;;;4.45;2.40;;;7.20;99.90;;;;;;4899626;29;20139;-79
2022/02/15 07:42:16;;;;;;;5.45;2.30;;;7.10;99.90;;;;;;4899622;29;20055;-80
2022/02/15 07:44:43;;;;;;;5.53;2.50;;;7.00;99.90;;;;;;4899818;29;20202;-77
2022/02/15 07:47:10;;;;;;;5.15;2.45;;;6.90;99.90;;;;;;4899777;29;20143;-77
2022/02/15 07:49:37;;;;;;;4.63;2.13;;;6.90;99.90;;;;;;4899422;29;20135;-79
2022/02/15 07:52:06;;;;;;;4.47;2.35;;;6.80;99.90;;;;;;4899382;29;20052;-77
2022/02/15 07:54:33;;;;;;;4.65;2.30;;;6.80;99.90;;;;;;4899519;29;20135;-76
2022/02/15 07:57:01;;;;;;;7.55;2.58;;;6.80;99.90;;;;;;4899351;29;20048;-80
2022/02/15 07:59:28;;;;;;;4.95;2.60;;;6.80;99.90;;;;;;4899447;29;20076;-79
2022/02/15 08:01:55;;;;;;;4.90;2.10;;;6.90;99.90;;;;;;4899220;29;20422;-79
2022/02/15 08:04:22;;;;;;;6.05;2.40;;;6.90;99.90;;;;;;4899272;29;20406;-78
2022/02/15 08:06:53;;;;;;;5.47;2.63;;;6.90;99.90;;;;;;4899453;29;20075;-77
2022/02/15 08:09:22;;;;;;;7.20;2.55;;;7.00;99.90;;;;;;4899250;29;20049;-78
2022/02/15 08:11:54;;;;;;;5.13;2.42;;;7.00;99.90;;;;;;4899226;29;20053;-78
2022/02/15 08:14:23;;;;;;;6.03;2.47;;;7.10;99.90;;;;;;4899362;29;20143;-78
2022/02/15 08:16:53;;;;;;;4.70;2.88;;;7.10;99.90;;;;;;4898986;29;20051;-77
2022/02/15 08:19:26;;;;;;;6.07;2.90;;;7.20;99.90;;;;;;4898690;29;20048;-78
2022/02/15 08:21:56;;;;;;;7.88;2.97;;;7.20;99.90;;;;;;4898697;29;20044;-77
2022/02/15 08:24:23;;;;;;;5.50;2.67;;;7.20;99.90;;;;;;4899067;29;20058;-77
2022/02/15 08:26:51;;;;;;;5.40;2.90;;;7.30;99.90;;;;;;4898970;29;20152;-78
2022/02/15 08:29:18;;;;;;;5.50;3.10;;;7.30;99.90;;;;;;4898726;29;20091;-79
2022/02/15 08:31:46;;;;;;;5.75;3.25;;;7.30;99.90;;;;;;4898727;29;20059;-78
2022/02/15 08:34:13;;;;;;;5.68;2.90;;;7.30;99.90;;;;;;4898418;29;20048;-79
2022/02/15 08:36:40;;;;;;;6.93;3.15;;;7.40;99.90;;;;;;4898853;29;20052;-78
2022/02/15 08:39:08;;;;;;;7.82;3.38;;;7.40;99.90;;;;;;4898880;29;20144;-76
2022/02/15 08:41:35;;;;;;;6.55;3.13;;;7.40;99.90;;;;;;4898773;29;20051;-76
2022/02/15 08:44:02;;;;;;;5.65;3.10;;;7.50;99.90;;;;;;4898718;29;20052;-77
2022/02/15 08:46:29;;;;;;;5.78;3.28;;;7.50;99.90;;;;;;4898651;29;20102;-78
2022/02/15 08:48:58;;;;;;;4.93;3.00;;;7.60;99.90;;;;;;4898307;29;20056;-78
2022/02/15 08:51:25;;;;;;;6.25;3.17;;;7.70;99.90;;;;;;4898227;29;20145;-78
2022/02/15 08:53:53;;;;;;;6.20;3.17;;;7.70;99.90;;;;;;4898395;29;20052;-78
2022/02/15 08:56:22;;;;;;;6.45;3.08;;;7.70;99.90;;;;;;4898489;29;20052;-79
2022/02/15 08:58:50;;;;;;;7.55;3.50;;;7.70;99.90;;;;;;4898380;29;20060;-78
2022/02/15 09:01:17;;;;;;;6.75;3.50;;;7.70;99.90;;;;;;4898151;29;20056;-77
2022/02/15 09:03:44;;;;;;;6.07;3.50;;;7.70;99.90;;;;;;4898246;29;20056;-79
2022/02/15 09:06:13;;;;;;;6.65;3.55;;;7.60;99.90;;;;;;4898176;29;20052;-78
2022/02/15 09:08:40;;;;;;;5.82;3.30;;;7.60;99.90;;;;;;4898394;29;20123;-78
2022/02/15 09:11:07;;;;;;;6.25;3.50;;;7.60;99.90;;;;;;4898276;29;20091;-80
2022/02/15 09:13:34;;;;;;;6.30;3.50;;;7.70;99.90;;;;;;4898044;29;20056;-79
2022/02/15 09:16:02;;;;;;;6.63;3.25;;;7.60;99.90;;;;;;4898031;29;20135;-78
2022/02/15 09:18:29;;;;;;;5.47;3.33;;;7.60;99.90;;;;;;4898242;29;20566;-79
2022/02/15 09:20:56;;;;;;;7.10;3.22;;;7.60;99.90;;;;;;4898009;29;20055;-77
2022/02/15 09:23:24;;;;;;;6.28;3.35;;;7.50;99.90;;;;;;4898066;29;20052;-77
2022/02/15 09:25:51;;;;;;;5.32;3.20;;;7.50;99.90;;;;;;4897903;29;20566;-78
2022/02/15 09:28:18;;;;;;;6.18;3.20;;;7.40;99.90;;;;;;4897968;29;20053;-78
2022/02/15 09:30:48;;;;;;;6.35;3.40;;;7.40;99.90;;;;;;4897800;29;20053;-79
2022/02/15 09:33:15;;;;;;;5.82;3.45;;;7.40;99.90;;;;;;4898034;29;20057;-77
2022/02/15 09:35:42;;;;;;;6.20;3.08;;;7.40;99.90;;;;;;4898041;29;20133;-78
2022/02/15 09:38:09;;;;;;;4.97;2.88;;;7.50;99.90;;;;;;4898115;29;20581;-77
2022/02/15 09:40:38;;;;;;;6.07;3.00;;;7.50;99.90;;;;;;4897893;29;20055;-79
2022/02/15 09:43:06;;;;;;;5.75;2.97;;;7.50;99.90;;;;;;4897780;29;20060;-78
2022/02/15 09:45:35;;;;;;;6.30;3.22;;;7.60;99.90;;;;;;4897877;29;20052;-78
2022/02/15 09:48:03;;;;;;;6.63;3.30;;;7.60;99.90;;;;;;4897892;29;20131;-78
2022/02/15 09:50:33;;;;;;;6.80;3.20;;;7.60;99.90;;;;;;4897633;29;20087;-78
2022/02/15 09:53:01;;;;;;;6.65;3.20;;;7.70;99.90;;;;;;4897594;29;20093;-78
2022/02/15 09:55:28;;;;;;;5.13;2.85;;;7.70;99.90;;;;;;4897680;29;20452;-78
2022/02/15 09:57:57;;;;;;;6.00;3.40;;;7.80;99.90;;;;;;4897764;29;20049;-76
2022/02/15 10:00:24;;;;;;;5.80;2.78;;;7.80;99.90;;;;;;4897728;29;20108;-78
2022/02/15 10:02:51;;;;;;;5.20;2.70;;;7.90;99.90;;;;;;4897734;29;20131;-77
2022/02/15 10:05:22;;;;;;;5.40;2.83;;;7.90;99.90;;;;;;4897743;29;20048;-77
2022/02/15 10:07:53;;;;;;;4.65;2.85;;;7.90;99.90;;;;;;4897567;29;20487;-79
2022/02/15 10:10:29;;;;;;;5.05;2.53;;;7.90;99.90;;;;;;4897716;29;20088;-78
2022/02/15 10:13:03;;;;;;;5.47;2.70;;;7.90;99.90;;;;;;4896400;29;20049;-78
2022/02/15 10:15:34;;;;;;;4.90;2.67;;;8.00;99.90;;;;;;4897612;29;20048;-78
2022/02/15 10:18:07;;;;;;;5.35;2.90;;;8.00;99.90;;;;;;4897563;29;20396;-78
2022/02/15 10:20:34;;;;;;;5.40;2.67;;;8.00;99.90;;;;;;4897479;29;20057;-78
2022/02/15 10:23:18;;;;;;;4.35;2.35;;;8.00;99.90;;;;;;4897668;29;20080;-77
2022/02/15 10:25:47;;;;;;;5.78;2.50;;;8.00;99.90;;;;;;4896605;29;20508;-76
2022/02/15 10:28:18;;;;;;;4.03;2.00;;;8.00;99.90;;;;;;4897486;29;20087;-78
2022/02/15 10:30:47;;;;;;;4.25;2.30;;;8.10;99.90;;;;;;4897180;29;20505;-78
2022/02/15 10:33:15;;;;;;;3.75;1.50;;;8.10;99.90;;;;;;4897168;29;20569;-79
2022/02/15 10:35:56;;;;;;;2.42;1.13;;;8.10;99.90;;;;;;4897455;29;20080;-76
2022/02/15 10:38:33;;;;;;;2.95;1.40;;;8.10;99.90;;;;;;4897244;29;20127;-78
2022/02/15 10:41:03;;;;;;;4.50;1.83;;;8.20;99.90;;;;;;4897320;29;20615;-78
2022/02/15 10:43:43;;;;;;;4.38;2.10;;;8.20;99.90;;;;;;4898366;29;20144;-79
2022/02/15 10:46:12;;;;;;;3.90;2.08;;;8.40;99.90;;;;;;4900904;29;20557;-78
2022/02/15 10:48:40;;;;;;;4.15;1.40;;;8.40;99.90;;;;;;4900792;29;20048;-78
2022/02/15 10:51:07;;;;;;;4.47;1.30;;;8.50;99.90;;;;;;4900361;29;20052;-78
2022/02/15 10:53:35;;;;;;;2.78;1.25;;;8.50;99.60;;;;;;4899639;29;20495;-79
2022/02/15 10:56:03;;;;;;;2.75;1.13;;;8.50;99.00;;;;;;4900501;29;20087;-78
2022/02/15 10:58:33;;;;;;;3.38;1.10;;;8.60;98.60;;;;;;4900595;29;20052;-78
2022/02/15 11:01:05;;;;;;;3.10;1.02;;;8.70;98.60;;;;;;4900645;29;20079;-79
2022/02/15 11:03:34;;;;;;;2.30;0.93;;;8.70;98.30;;;;;;4900581;29;20144;-77
2022/02/15 11:06:03;;;;;;;2.38;1.13;;;8.80;97.00;;;;;;4899743;29;20051;-78
2022/02/15 11:08:32;;;;;;;2.05;0.90;;;8.70;97.50;;;;;;4900240;29;20139;-79
2022/02/15 11:11:13;;;;;;;2.25;1.00;;;8.70;98.00;;;;;;4900240;29;20056;-78
2022/02/15 11:13:42;;;;;;;4.93;1.38;;;8.60;98.20;;;;;;4900200;29;20266;-78
2022/02/15 11:16:13;;;;;;;2.58;1.00;;;8.60;98.60;;;;;;4900122;29;20079;-78
2022/02/15 11:18:40;;;;;;;2.30;0.95;;;8.60;98.80;;;;;;4899624;29;20044;-78
2022/02/15 11:21:10;;;;;;;3.00;1.55;;;8.60;98.60;;;;;;4899845;29;20127;-77
2022/02/15 11:23:40;;;;;;;3.03;1.40;;;8.60;98.70;;;;;;4899605;29;20048;-78
2022/02/15 11:26:11;;;;;;;2.80;1.20;;;8.60;98.70;;;;;;4900107;29;20144;-78
2022/02/15 11:28:52;;;;;;;3.05;1.10;;;8.60;98.80;;;;;;4900070;29;20059;-77
2022/02/15 11:31:27;;;;;;;2.67;1.00;;;8.60;98.70;;;;;;4899310;29;20172;-78
2022/02/15 11:33:55;;;;;;;2.28;0.88;;;8.60;97.60;;;;;;4899974;29;20056;-78
2022/02/15 11:36:24;;;;;;;2.28;0.80;;;8.50;94.90;;;;;;4899656;29;20048;-77
2022/02/15 11:38:53;;;;;;;3.55;0.88;;;8.50;94.40;;;;;;4898004;29;20593;-77
2022/02/15 11:41:21;;;;;;;2.25;0.93;;;8.40;94.40;;;;;;4899248;29;20056;-79
2022/02/15 11:43:58;;;;;;;1.83;0.70;;;8.40;94.40;;;;;;4899164;29;20052;-77
2022/02/15 11:46:30;;;;;;;2.22;0.75;;;8.40;94.50;;;;;;4899280;29;20214;-78
2022/02/15 11:49:09;;;;;;;2.15;0.70;;;8.30;94.70;;;;;;4898986;29;20048;-78
2022/02/15 11:51:38;;;;;;;1.85;0.80;;;8.30;94.30;;;;;;4898563;29;20059;-78
2022/02/15 11:54:10;;;;;;;2.30;0.80;;;8.30;93.80;;;;;;4898585;29;20062;-78
2022/02/15 11:56:40;;;;;;;3.60;0.85;;;8.30;94.00;;;;;;4898335;29;20053;-78
2022/02/15 11:59:16;;;;;;;2.58;0.90;;;8.20;94.30;;;;;;4899053;29;20087;-78
2022/02/15 12:01:55;;;;;;;2.15;0.95;;;8.30;94.20;;;;;;4899123;29;20055;-77
2022/02/15 12:04:23;;;;;;;3.08;0.80;;;8.30;94.20;;;;;;4899007;29;20052;-77
2022/02/15 12:06:50;;;;;;;2.63;0.88;;;8.20;94.40;;;;;;4898393;29;20122;-78
2022/02/15 12:09:17;;;;;;;2.55;0.95;;;8.30;94.80;;;;;;4899295;29;20049;-77
2022/02/15 12:11:47;;;;;;;2.30;0.80;;;8.30;95.00;;;;;;4899020;29;20055;-78
2022/02/15 12:14:18;;;;;;;2.70;0.75;;;8.30;94.70;;;;;;4898668;29;20486;-79
2022/02/15 12:16:48;;;;;;;2.40;0.70;;;8.30;94.60;;;;;;4898839;29;20133;-78
2022/02/15 12:19:24;;;;;;;2.33;0.70;;;8.40;95.10;;;;;;4898158;29;20567;-79
2022/02/15 12:21:52;;;;;;;2.28;0.75;;;8.40;95.10;;;;;;4897632;29;20586;-79
2022/02/15 12:24:21;;;;;;;2.42;0.80;;;8.50;95.00;;;;;;4898857;29;20478;-78
2022/02/15 12:26:48;;;;;;;2.30;0.80;;;8.60;94.90;;;;;;4898642;29;20057;-78
2022/02/15 12:29:17;;;;;;;2.03;0.90;;;8.60;94.40;;;;;;4898662;29;20128;-79
2022/02/15 12:31:44;;;;;;;3.17;0.93;;;8.60;94.50;;;;;;4897889;29;20049;-79
2022/02/15 12:34:13;;;;;;;3.25;0.85;;;8.70;94.60;;;;;;4898644;29;20083;-77
2022/02/15 12:36:41;;;;;;;3.25;0.82;;;8.70;93.80;;;;;;4898370;29;20052;-78
2022/02/15 12:39:09;;;;;;;3.13;0.75;;;8.70;91.60;;;;;;4898285;29;20139;-78
2022/02/15 12:41:38;;;;;;;4.40;1.80;;;8.70;91.30;;;;;;4898290;29;20100;-79
2022/02/15 12:44:07;;;;;;;6.28;2.40;;;8.70;91.00;;;;;;4897800;29;20462;-77
2022/02/15 12:46:36;;;;;;;5.25;2.05;;;8.70;91.10;;;;;;4898133;29;20060;-78
2022/02/15 12:49:07;;;;;;;1.85;0.70;;;8.80;90.30;;;;;;4897778;29;20060;-79
2022/02/15 12:51:35;;;;;;;1.30;0.52;;;8.90;90.10;;;;;;4898478;29;20174;-78
2022/02/15 12:54:05;;;;;;;2.70;0.75;;;8.90;90.10;;;;;;4898025;29;20455;-79
2022/02/15 12:56:35;;;;;;;2.38;0.80;;;9.00;90.10;;;;;;4898094;29;20052;-78
2022/02/15 12:59:08;;;;;;;2.45;1.00;;;9.00;90.00;;;;;;4897780;29;20146;-79
2022/02/15 13:01:37;;;;;;;3.10;0.90;;;9.00;89.00;;;;;;4898196;29;20391;-77
2022/02/15 13:04:07;;;;;;;1.83;0.80;;;9.00;88.80;;;;;;4898002;29;20057;-79
2022/02/15 13:06:39;;;;;;;3.28;0.88;;;9.00;89.30;;;;;;4897764;29;20048;-78
2022/02/15 13:09:10;;;;;;;1.98;0.80;;;9.00;90.10;;;;;;4898021;29;20048;-78
2022/02/15 13:11:38;;;;;;;1.80;0.70;;;9.00;90.10;;;;;;4897749;29;20059;-78
2022/02/15 13:14:05;;;;;;;2.72;0.90;;;8.90;90.10;;;;;;4897838;29;20052;-78
2022/02/15 13:16:42;;;;;;;2.10;0.90;;;8.90;90.20;;;;;;4897527;29;20135;-78
2022/02/15 13:19:09;;;;;;;2.42;0.88;;;8.90;90.40;;;;;;4897730;29;20273;-79
2022/02/15 13:21:44;;;;;;;2.80;0.85;;;8.90;90.60;;;;;;4897709;29;20135;-78
2022/02/15 13:24:17;;;;;;;2.13;0.80;;;8.90;91.10;;;;;;4896923;29;20052;-78
2022/02/15 13:26:46;;;;;;;3.03;1.02;;;8.90;91.00;;;;;;4897933;29;20052;-77
2022/02/15 13:29:24;;;;;;;3.15;0.88;;;8.90;90.90;;;;;;4897481;29;20140;-78
2022/02/15 13:31:54;;;;;;;2.45;1.05;;;8.90;91.10;;;;;;4895668;29;20060;-78
2022/02/15 13:34:32;;;;;;;2.90;0.82;;;9.00;91.00;;;;;;4897416;29;20139;-78
2022/02/15 13:37:02;;;;;;;7.70;3.63;;;8.90;90.50;;;;;;4897295;29;20044;-76
2022/02/15 13:39:29;;;;;;;4.32;1.13;;;8.90;90.80;;;;;;4897610;29;20052;-77
2022/02/15 13:41:57;;;;;;;3.95;1.15;;;8.90;91.10;;;;;;4897633;29;20048;-78
2022/02/15 13:44:24;;;;;;;1.85;0.90;;;8.80;91.20;;;;;;4897319;29;20466;-79
2022/02/15 13:46:54;;;;;;;1.88;0.90;;;8.80;91.50;;;;;;4897454;29;20088;-75
2022/02/15 13:49:21;;;;;;;3.35;1.17;;;8.80;91.30;;;;;;4897083;29;20084;-76
2022/02/15 13:51:48;;;;;;;2.40;1.00;;;8.80;91.30;;;;;;4897275;29;20099;-76
2022/02/15 13:54:16;;;;;;;4.72;1.20;;;8.70;91.40;;;;;;4897295;29;20056;-76
2022/02/15 13:56:43;;;;;;;3.63;1.02;;;8.70;91.60;;;;;;4897253;29;20049;-78
2022/02/15 13:59:12;;;;;;;2.70;1.17;;;8.70;91.80;;;;;;4896955;29;20055;-78
2022/02/15 14:01:42;;;;;;;3.63;1.23;;;8.70;92.10;;;;;;4897415;29;20052;-78
2022/02/15 14:04:10;;;;;;;3.05;1.10;;;8.70;92.40;;;;;;4896822;29;20048;-77
2022/02/15 14:06:38;;;;;;;3.95;1.20;;;8.80;92.60;;;;;;4897420;29;20044;-78
2022/02/15 14:09:05;;;;;;;3.38;1.25;;;8.80;92.70;;;;;;4897265;29;20087;-78
2022/02/15 14:11:32;;;;;;;3.30;1.10;;;8.80;92.80;;;;;;4897231;29;20475;-79
2022/02/15 14:13:59;;;;;;;2.83;1.02;;;8.80;93.10;;;;;;4897053;29;20592;-77
2022/02/15 14:16:27;;;;;;;3.70;1.25;;;8.80;93.40;;;;;;4896595;29;20051;-76
2022/02/15 14:18:54;;;;;;;4.07;1.20;;;8.80;93.40;;;;;;4899011;29;20054;-78
2022/02/15 14:21:22;;;;;;;4.10;1.40;;;8.80;93.30;;;;;;4900857;29;20127;-77
2022/02/15 14:23:49;;;;;;;2.95;1.30;;;8.80;93.20;;;;;;4900906;29;20120;-79
2022/02/15 14:26:16;;;;;;;4.20;1.58;;;8.80;93.70;;;;;;4899451;29;20137;-78
2022/02/15 14:28:44;;;;;;;4.43;1.42;;;8.80;94.60;;;;;;4900123;29;20131;-78
2022/02/15 14:31:11;;;;;;;3.10;1.20;;;8.90;95.10;;;;;;4901017;29;20076;-77
2022/02/15 14:33:38;;;;;;;3.17;1.23;;;9.00;95.30;;;;;;4901053;29;20131;-77
2022/02/15 14:36:06;;;;;;;2.38;0.90;;;9.00;95.30;;;;;;4900926;29;20502;-79
2022/02/15 14:38:34;;;;;;;1.88;0.90;;;9.10;95.00;;;;;;4900845;29;20064;-75
2022/02/15 14:41:02;;;;;;;2.75;1.00;;;9.20;95.10;;;;;;4900750;29;20554;-78
2022/02/15 14:43:29;;;;;;;2.22;0.80;;;9.10;95.00;;;;;;4900225;29;20100;-77
2022/02/15 14:45:57;;;;;;;2.92;1.10;;;9.10;95.10;;;;;;4900847;29;20112;-79
2022/02/15 14:48:24;;;;;;;2.55;0.80;;;9.10;95.00;;;;;;4900675;29;20059;-78
2022/02/15 14:50:53;;;;;;;2.28;0.95;;;9.00;95.00;;;;;;4900400;29;20071;-79
2022/02/15 14:53:20;;;;;;;2.17;0.80;;;8.90;95.00;;;;;;4900453;29;20053;-79
2022/02/15 14:55:50;;;;;;;1.95;0.98;;;8.70;95.10;;;;;;4900369;29;20127;-78
2022/02/15 14:58:17;;;;;;;2.13;0.88;;;8.70;95.30;;;;;;4900640;29;20531;-77
2022/02/15 15:00:44;;;;;;;2.85;1.02;;;8.50;95.60;;;;;;4900594;29;20048;-79
2022/02/15 15:03:12;;;;;;;2.17;0.85;;;8.50;95.90;;;;;;4900368;29;20066;-77
2022/02/15 15:05:42;;;;;;;2.40;1.10;;;8.50;96.20;;;;;;4900507;29;20052;-78
2022/02/15 15:08:09;;;;;;;2.13;1.00;;;8.40;96.50;;;;;;4899925;29;20558;-78
2022/02/15 15:10:40;;;;;;;3.25;0.90;;;8.40;96.40;;;;;;4900357;29;20139;-77
2022/02/15 15:13:08;;;;;;;2.25;0.90;;;8.50;96.40;;;;;;4900043;29;20506;-79
2022/02/15 15:15:36;;;;;;;1.95;0.90;;;8.60;96.10;;;;;;4900120;29;20520;-78
2022/02/15 15:18:03;;;;;;;3.38;1.05;;;8.70;95.70;;;;;;4900091;29;20060;-79
2022/02/15 15:20:31;;;;;;;1.92;0.80;;;9.20;95.20;;;;;;4900221;29;20143;-80
2022/02/15 15:22:58;;;;;;;3.78;1.02;;;10.00;93.80;;;;;;4900008;29;20044;-78
2022/02/15 15:25:25;;;;;;;2.70;0.70;;;12.10;91.40;;;;;;4899956;29;20052;-78
2022/02/15 15:27:52;;;;;;;2.70;1.10;;;14.40;80.00;;;;;;4900089;29;20053;-78
2022/02/15 15:30:21;;;;;;;4.55;2.05;;;16.50;68.30;;;;;;4899825;29;20056;-79
2022/02/15 15:32:49;;;;;;;2.42;0.98;;;18.50;59.50;;;;;;4899987;29;20406;-76
2022/02/15 15:35:16;;;;;;;2.72;1.00;;;19.90;54.30;;;;;;4899142;29;20143;-78
2022/02/15 15:37:43;;;;;;;1.92;0.90;;;21.00;50.00;;;;;;4899994;29;20131;-77
2022/02/15 15:40:14;;;;;;;2.22;0.77;;;21.80;47.50;;;;;;4899617;29;20117;-78
2022/02/15 15:42:43;;;;;;;2.25;0.90;;;22.30;45.70;;;;;;4899853;29;20063;-78
2022/02/15 15:45:12;;;;;;;2.05;0.73;;;22.80;44.50;;;;;;4899587;29;20052;-77
2022/02/15 15:47:42;;;;;;;1.90;0.80;;;23.20;43.30;;;;;;4899094;29;20383;-78
2022/02/15 15:50:10;;;;;;;2.40;0.90;;;23.20;43.00;;;;;;4899740;29;20088;-78
2022/02/15 15:52:37;;;;;;;1.60;0.70;;;22.40;41.50;;;;;;4899649;29;20076;-79
2022/02/15 15:55:06;;;;;;;2.35;0.80;;;21.50;42.80;;;;;;4899401;29;20056;-77
2022/02/15 15:57:33;;;;;;;1.85;0.82;;;20.00;44.70;;;;;;4899479;29;20198;-79
2022/02/15 16:00:01;;;;;;;2.03;0.85;;;;;;;;;;4898859;29;20049;-77
2022/02/15 16:02:28;;;;;;;2.72;1.10;;;17.20;82.30;;;;;;4899610;29;20049;-78
2022/02/15 16:04:57;;;;;;;3.65;1.10;;;16.50;76.60;;;;;;4899346;29;20048;-76
2022/02/15 16:07:25;;;;;;;2.85;1.20;;;16.00;73.30;;;;;;4899395;29;20049;-79
2022/02/15 16:09:52;;;;;;;1.85;0.82;;;;;;;;;;4899428;29;20148;-78
2022/02/15 16:12:19;;;;;;;3.15;1.15;;;14.50;83.00;;;;;;4899236;29;20080;-78
2022/02/15 16:14:46;;;;;;;2.78;1.25;;;14.00;85.20;;;;;;4898478;29;20405;-77
2022/02/15 16:17:13;;;;;;;2.60;1.10;;;12.00;80.00;;;;;;4899174;29;20104;-79
2022/02/15 16:19:42;;;;;;;3.88;1.10;;;;;;;;;;4899132;29;20084;-76
2022/02/15 16:22:13;;;;;;;4.28;1.30;;;13.60;93.30;;;;;;4899168;29;20052;-77
2022/02/15 16:24:42;;;;;;;6.78;3.00;;;;;;;;;;4899389;29;20052;-79
2022/02/15 16:27:10;;;;;;;5.07;2.35;;;;;;;;;;4898386;29;20063;-78
2022/02/15 16:29:41;;;;;;;3.58;1.10;;;;;;;;;;4898911;29;20466;-78
2022/02/15 16:32:13;;;;;;;3.15;1.08;;;;;;;;;;4898735;29;20406;-79
2022/02/15 16:34:41;;;;;;;2.30;1.10;;;;;;;;;;4897820;29;20471;-76
2022/02/15 16:37:10;;;;;;;3.90;1.00;;;;;;;;;;4912934;29;20048;-78
2022/02/15 16:39:38;;;;;;;3.55;1.30;;;;;;;;;;4915079;29;20052;-78
2022/02/15 16:42:08;;;;;;;3.33;1.20;;;;;;;;;;4897892;29;20072;-78
2022/02/15 16:44:38;;;;;;;2.40;1.00;;;10.40;77.90;;;;;;4910233;29;20139;-77
2022/02/15 16:47:09;;;;;;;2.78;1.20;;;10.00;81.90;;;;;;4902963;29;20135;-76
2022/02/15 16:49:36;;;;;;;3.10;1.10;;;9.70;85.70;;;;;;4901087;29;20052;-79
2022/02/15 16:52:04;;;;;;;4.00;1.17;;;9.40;88.30;;;;;;4905973;29;20052;-79
2022/02/15 16:54:33;;;;;;;3.25;1.45;;;9.20;90.20;;;;;;4912424;29;20058;-79
2022/02/15 16:57:02;;;;;;;15.27;7.70;;;9.00;91.10;;;;;;4915573;29;20048;-78
2022/02/15 16:59:29;;;;;;;15.73;7.60;;;8.80;91.80;;;;;;4898461;29;20054;-78
2022/02/15 17:01:56;;;;;;;4.70;1.90;;;8.70;92.30;;;;;;4898131;29;20049;-78
2022/02/15 17:04:23;;;;;;;5.03;1.35;;;8.60;92.90;;;;;;4898037;29;20056;-78
2022/02/15 17:06:50;;;;;;;4.03;1.38;;;8.50;99.90;;;;;;4897589;29;20057;-78
2022/02/15 17:09:17;;;;;;;3.00;1.30;;;8.40;99.90;;;;;;4898427;29;20135;-78
2022/02/15 17:11:45;;;;;;;4.15;1.50;;;8.20;94.10;;;;;;4898267;29;20054;-78
2022/02/15 17:14:12;;;;;;;3.97;1.65;;;8.10;94.40;;;;;;4897949;29;20554;-79
2022/02/15 17:16:39;;;;;;;2.85;1.27;;;8.00;94.80;;;;;;4898007;29;20471;-78
2022/02/15 17:19:06;;;;;;;2.88;1.10;;;7.90;95.00;;;;;;4897599;29;20049;-79
2022/02/15 17:21:33;;;;;;;3.40;1.23;;;7.80;95.10;;;;;;4897757;29;20055;-78
2022/02/15 17:24:01;;;;;;;4.20;1.40;;;7.70;97.30;;;;;;4897896;29;20127;-77
2022/02/15 17:26:28;;;;;;;3.88;1.30;;;8.00;99.90;;;;;;4897849;29;20052;-78
2022/02/15 17:28:57;;;;;;;3.28;1.27;;;7.60;99.90;;;;;;4897260;29;20045;-78
2022/02/15 17:31:24;;;;;;;3.42;1.30;;;7.80;99.90;;;;;;4897247;29;20128;-79
2022/02/15 17:33:51;;;;;;;3.78;1.40;;;7.60;99.90;;;;;;4896902;29;20052;-79
2022/02/15 17:36:18;;;;;;;4.18;1.50;;;7.50;99.90;;;;;;4897864;29;20486;-79
2022/02/15 17:38:45;;;;;;;3.05;1.35;;;7.50;99.90;;;;;;4893830;29;20143;-79
2022/02/15 17:41:12;;;;;;;3.80;1.63;;;7.50;99.90;;;;;;4891138;29;20131;-77
2022/02/15 17:43:39;;;;;;;3.97;1.50;;;7.40;99.90;;;;;;4898065;29;20131;-80
2022/02/15 17:46:07;;;;;;;3.20;1.50;;;7.40;99.90;;;;;;4897244;29;20077;-78
2022/02/15 17:48:34;;;;;;;4.35;1.95;;;7.40;99.90;;;;;;4897740;29;20055;-78
2022/02/15 17:51:01;;;;;;;3.72;1.65;;;7.10;99.90;;;;;;4897774;29;20084;-78
2022/02/15 17:53:33;;;;;;;4.47;1.70;;;7.30;99.90;;;;;;4898628;29;20053;-77
2022/02/15 17:56:00;;;;;;;5.05;2.35;;;7.40;99.90;;;;;;4901692;29;20056;-79
2022/02/15 17:58:27;;;;;;;8.13;3.70;;;7.30;99.90;;;;;;4901144;29;20048;-78
2022/02/15 18:00:54;;;;;;;3.47;1.65;;;7.30;99.90;;;;;;4901612;29;20151;-76